Time;durP1;ratioP1;P1;durP2;ratioP2;P2;SDS_P1;SDS_P2;PMS_P1;PMS_P2;Temp;Humidity;BMP_temperature;BMP_pressure;BME280_temperature;BME280_humidity;BME280_pressure;Samples;Min_cycle;Max_cycle;Signal;HPM_P1;HPM_P2
2024/02/28 00:02:13;;;;;;;85.07;36.80;;;1.60;99.90;;;;;;5053264;28;20206;-71
2024/02/28 00:04:41;;;;;;;90.67;37.03;;;1.60;99.90;;;;;;5053409;28;20182;-72
2024/02/28 00:07:07;;;;;;;86.17;36.33;;;1.60;99.90;;;;;;5053379;28;20171;-72
2024/02/28 00:09:32;;;;;;;80.83;35.23;;;1.60;99.90;;;;;;5054143;28;20343;-71
2024/02/28 00:11:58;;;;;;;96.00;36.90;;;1.60;99.90;;;;;;5061429;28;20178;-71
2024/02/28 00:14:24;;;;;;;88.20;36.90;;;1.50;99.90;;;;;;5053124;28;20186;-72
2024/02/28 00:16:50;;;;;;;105.97;38.13;;;1.50;99.90;;;;;;5053338;28;20244;-72
2024/02/28 00:19:17;;;;;;;108.30;38.00;;;1.50;99.90;;;;;;5053030;28;20195;-72
2024/02/28 00:21:43;;;;;;;116.17;41.17;;;1.50;99.90;;;;;;5053095;28;20212;-71
2024/02/28 00:24:09;;;;;;;101.30;40.97;;;1.60;99.90;;;;;;5062478;28;20170;-71
2024/02/28 00:26:35;;;;;;;128.10;41.60;;;1.60;99.90;;;;;;5073359;28;20182;-71
2024/02/28 00:29:00;;;;;;;111.33;40.70;;;1.60;99.90;;;;;;5072384;28;20180;-71
2024/02/28 00:31:26;;;;;;;112.93;42.30;;;1.60;99.90;;;;;;5072457;28;20261;-71
2024/02/28 00:33:51;;;;;;;114.23;42.50;;;1.60;99.90;;;;;;5072793;28;20700;-72
2024/02/28 00:36:17;;;;;;;102.30;41.50;;;1.70;99.90;;;;;;5072915;28;20291;-71
2024/02/28 00:38:43;;;;;;;108.43;41.90;;;1.60;99.90;;;;;;5072797;28;20189;-71
2024/02/28 00:41:09;;;;;;;128.63;44.90;;;1.60;99.90;;;;;;5072321;28;20577;-72
2024/02/28 00:43:35;;;;;;;113.90;40.50;;;1.50;99.90;;;;;;5059033;28;20193;-71
2024/02/28 00:46:00;;;;;;;102.83;40.13;;;1.40;99.90;;;;;;5052777;28;20175;-71
2024/02/28 00:48:29;;;;;;;106.20;37.47;;;1.40;99.90;;;;;;5060230;28;20186;-71
2024/02/28 00:50:54;;;;;;;100.40;36.67;;;1.40;99.90;;;;;;5072330;28;20204;-72
2024/02/28 00:53:20;;;;;;;94.93;36.80;;;1.40;99.90;;;;;;5072283;28;20528;-71
2024/02/28 00:55:46;;;;;;;97.47;37.30;;;1.30;99.90;;;;;;5072599;28;20247;-72
2024/02/28 00:58:12;;;;;;;96.30;36.97;;;1.30;99.90;;;;;;5072336;28;20170;-71
2024/02/28 01:00:37;;;;;;;101.33;36.67;;;1.20;99.90;;;;;;5072277;28;20458;-72
2024/02/28 01:03:08;;;;;;;100.80;37.63;;;1.20;99.90;;;;;;5065148;28;20171;-71
2024/02/28 01:05:35;;;;;;;94.67;39.37;;;1.20;99.90;;;;;;5052154;28;20171;-72
2024/02/28 01:08:00;;;;;;;87.90;36.60;;;1.20;99.90;;;;;;5052418;28;20171;-72
2024/02/28 01:10:26;;;;;;;88.57;36.17;;;1.10;99.90;;;;;;5062575;28;20528;-72
2024/02/28 01:12:51;;;;;;;95.73;36.30;;;1.00;99.90;;;;;;5072090;28;20178;-72
2024/02/28 01:15:17;;;;;;;100.80;34.37;;;1.00;99.90;;;;;;5058907;28;20263;-71
2024/02/28 01:17:43;;;;;;;94.97;35.93;;;0.90;99.90;;;;;;5052313;28;20185;-72
2024/02/28 01:20:09;;;;;;;95.53;35.60;;;0.90;99.90;;;;;;5051470;28;20198;-72
2024/02/28 01:22:35;;;;;;;94.83;36.17;;;0.80;99.90;;;;;;5052181;28;20593;-72
2024/02/28 01:25:02;;;;;;;101.73;38.83;;;0.80;99.90;;;;;;5051817;28;20163;-72
2024/02/28 01:27:28;;;;;;;105.17;36.17;;;0.70;99.90;;;;;;5052092;28;20170;-72
2024/02/28 01:29:54;;;;;;;104.63;38.77;;;0.70;99.90;;;;;;5062959;28;20201;-72
2024/02/28 01:32:19;;;;;;;99.50;35.47;;;0.70;99.90;;;;;;5071740;28;20217;-72
2024/02/28 01:34:45;;;;;;;91.00;37.73;;;0.80;99.90;;;;;;5071511;28;20594;-71
2024/02/28 01:37:11;;;;;;;104.17;41.03;;;0.70;99.90;;;;;;5071632;28;20224;-71
2024/02/28 01:39:37;;;;;;;105.97;38.83;;;0.70;99.90;;;;;;5071500;28;20694;-71
2024/02/28 01:42:03;;;;;;;106.03;39.00;;;0.70;99.90;;;;;;5071322;28;20667;-72
2024/02/28 01:44:29;;;;;;;112.00;39.27;;;0.70;99.90;;;;;;5051168;28;20228;-72
2024/02/28 01:46:56;;;;;;;118.10;40.17;;;0.60;99.90;;;;;;5051654;28;20170;-72
2024/02/28 01:49:23;;;;;;;107.57;39.43;;;0.60;99.90;;;;;;5051437;28;20269;-72
2024/02/28 01:51:50;;;;;;;120.57;43.77;;;0.60;99.90;;;;;;5051891;28;20170;-72
2024/02/28 01:54:17;;;;;;;110.93;40.90;;;0.60;99.90;;;;;;5051371;28;20659;-72
2024/02/28 01:56:43;;;;;;;112.37;39.67;;;0.60;99.90;;;;;;5051588;28;20190;-71
2024/02/28 01:59:11;;;;;;;125.80;41.83;;;0.50;99.90;;;;;;5070439;28;20642;-72
2024/02/28 02:01:37;;;;;;;103.20;37.60;;;0.60;99.90;;;;;;5053388;28;20201;-72
2024/02/28 02:04:04;;;;;;;104.73;39.83;;;0.60;99.90;;;;;;5071614;28;20158;-72
2024/02/28 02:06:30;;;;;;;117.87;39.00;;;0.60;99.90;;;;;;5071662;28;20162;-72
2024/02/28 02:08:56;;;;;;;112.33;41.37;;;0.50;99.90;;;;;;5071299;28;20166;-72
2024/02/28 02:11:22;;;;;;;130.10;46.30;;;0.60;99.90;;;;;;5071504;28;20193;-72
2024/02/28 02:13:51;;;;;;;149.37;46.13;;;0.70;99.90;;;;;;5071290;28;20176;-72
2024/02/28 02:16:19;;;;;;;146.50;45.83;;;0.80;99.90;;;;;;5055631;28;20182;-72
2024/02/28 02:18:45;;;;;;;150.40;49.57;;;0.90;99.90;;;;;;5052570;28;20174;-72
2024/02/28 02:21:15;;;;;;;165.40;49.67;;;1.10;99.90;;;;;;5034467;28;20233;-72
2024/02/28 02:23:41;;;;;;;160.00;50.33;;;1.30;99.90;;;;;;5065927;28;20170;-72
2024/02/28 02:26:07;;;;;;;161.13;52.70;;;1.50;99.90;;;;;;5071490;28;20253;-72
2024/02/28 02:28:33;;;;;;;151.60;49.60;;;1.70;99.90;;;;;;5071657;28;20174;-72
2024/02/28 02:30:59;;;;;;;170.43;50.93;;;1.90;99.90;;;;;;5071016;28;20201;-72
2024/02/28 02:33:25;;;;;;;151.60;50.40;;;2.00;99.90;;;;;;5074044;28;20650;-72
2024/02/28 02:35:51;;;;;;;160.23;47.73;;;2.10;99.90;;;;;;5075533;28;20173;-73
2024/02/28 02:38:17;;;;;;;174.90;52.10;;;2.20;99.90;;;;;;5062695;28;20656;-72
2024/02/28 02:40:43;;;;;;;157.63;49.50;;;2.30;99.90;;;;;;5055265;28;20253;-72
2024/02/28 02:43:09;;;;;;;148.53;48.07;;;2.40;99.90;;;;;;5054638;28;20636;-72
2024/02/28 02:45:35;;;;;;;151.07;49.77;;;2.50;99.90;;;;;;5054850;28;20246;-72
2024/02/28 02:48:00;;;;;;;146.67;48.47;;;2.60;99.90;;;;;;5054998;28;20193;-72
2024/02/28 02:50:26;;;;;;;140.33;46.57;;;2.70;99.90;;;;;;5054975;28;20242;-72
2024/02/28 02:52:51;;;;;;;149.00;49.80;;;2.70;99.90;;;;;;5054764;28;20171;-72
2024/02/28 02:55:17;;;;;;;141.77;47.50;;;2.70;99.90;;;;;;5054684;28;20175;-72
2024/02/28 02:57:43;;;;;;;172.77;52.57;;;2.80;99.90;;;;;;5054800;28;20206;-72
2024/02/28 03:00:10;;;;;;;162.20;51.33;;;2.90;99.90;;;;;;5054494;28;20231;-72
2024/02/28 03:02:38;;;;;;;139.63;46.93;;;3.00;99.90;;;;;;5054587;28;20194;-72
2024/02/28 03:05:04;;;;;;;147.27;48.27;;;3.00;99.90;;;;;;5069296;28;20177;-72
2024/02/28 03:07:30;;;;;;;145.40;47.67;;;3.20;99.90;;;;;;5075288;28;20170;-72
2024/02/28 03:09:55;;;;;;;152.30;50.37;;;3.30;99.90;;;;;;5075077;28;20213;-72
2024/02/28 03:12:21;;;;;;;139.43;47.23;;;3.30;99.90;;;;;;5073228;28;20281;-72
2024/02/28 03:14:50;;;;;;;133.27;47.23;;;3.30;99.90;;;;;;5054680;28;20171;-72
2024/02/28 03:17:15;;;;;;;126.63;46.13;;;3.30;99.90;;;;;;5054758;28;20600;-72
2024/02/28 03:19:44;;;;;;;132.37;47.13;;;3.40;99.90;;;;;;5054619;28;20187;-72
2024/02/28 03:22:09;;;;;;;131.73;46.87;;;3.40;99.90;;;;;;5036680;28;20215;-72
2024/02/28 03:24:35;;;;;;;132.90;48.13;;;3.50;99.90;;;;;;5054923;28;20692;-72
2024/02/28 03:27:01;;;;;;;132.50;46.60;;;3.50;99.90;;;;;;5055147;28;20286;-72
2024/02/28 03:29:27;;;;;;;139.67;46.37;;;3.50;99.90;;;;;;5074911;28;20188;-72
2024/02/28 03:31:53;;;;;;;135.47;47.00;;;3.60;99.90;;;;;;5075112;28;20178;-72
2024/02/28 03:34:19;;;;;;;138.17;48.27;;;3.60;99.90;;;;;;5075951;28;20584;-72
2024/02/28 03:36:45;;;;;;;126.97;47.13;;;3.60;99.90;;;;;;5075993;28;20182;-72
2024/02/28 03:39:10;;;;;;;146.53;49.87;;;3.60;99.90;;;;;;5057191;28;20220;-72
2024/02/28 03:41:36;;;;;;;135.00;47.33;;;3.70;99.90;;;;;;5074987;28;20206;-71
2024/02/28 03:44:01;;;;;;;135.40;48.13;;;3.70;99.90;;;;;;5053520;28;20190;-71
2024/02/28 03:46:27;;;;;;;135.93;48.37;;;3.70;99.90;;;;;;5054413;28;20281;-71
2024/02/28 03:48:53;;;;;;;138.20;46.97;;;3.80;99.90;;;;;;5053997;28;20185;-71
2024/02/28 03:51:18;;;;;;;127.90;47.23;;;3.80;99.90;;;;;;5053992;28;20575;-71
2024/02/28 03:53:44;;;;;;;123.20;45.90;;;3.80;99.90;;;;;;5053944;28;20163;-71
2024/02/28 03:56:09;;;;;;;131.47;46.50;;;3.80;99.90;;;;;;5063218;28;20256;-71
2024/02/28 03:58:35;;;;;;;123.10;44.70;;;3.80;99.90;;;;;;5073811;28;20575;-71
2024/02/28 04:01:01;;;;;;;140.97;45.90;;;3.80;99.90;;;;;;5065403;28;20559;-71
2024/02/28 04:03:26;;;;;;;123.70;45.27;;;3.80;99.90;;;;;;5053456;28;20707;-71
2024/02/28 04:05:52;;;;;;;144.20;45.43;;;3.80;99.90;;;;;;5053837;28;20174;-71
2024/02/28 04:08:18;;;;;;;132.07;45.20;;;3.80;99.90;;;;;;5053625;28;20186;-71
2024/02/28 04:10:43;;;;;;;138.57;43.93;;;3.80;99.90;;;;;;5053807;28;20266;-71
2024/02/28 04:13:09;;;;;;;122.20;44.60;;;3.80;99.90;;;;;;5053268;28;20175;-72
2024/02/28 04:15:35;;;;;;;141.27;47.73;;;3.80;99.90;;;;;;5059053;28;20647;-71
2024/02/28 04:18:01;;;;;;;141.00;45.63;;;3.80;99.90;;;;;;5073433;28;20300;-71
2024/02/28 04:20:26;;;;;;;128.90;44.43;;;3.80;99.90;;;;;;5073472;28;20663;-72
2024/02/28 04:22:52;;;;;;;145.77;47.33;;;3.80;99.90;;;;;;5073528;28;20212;-71
2024/02/28 04:25:19;;;;;;;121.90;46.07;;;3.80;99.90;;;;;;5053449;28;20214;-71
2024/02/28 04:27:45;;;;;;;133.50;44.50;;;3.70;99.90;;;;;;5053073;28;20632;-71
2024/02/28 04:30:10;;;;;;;132.47;46.80;;;3.70;99.90;;;;;;5052666;28;20197;-71
2024/02/28 04:32:38;;;;;;;131.47;45.77;;;3.80;99.90;;;;;;5052936;28;20182;-71
2024/02/28 04:35:03;;;;;;;139.47;46.80;;;3.80;99.90;;;;;;5052596;28;20182;-71
2024/02/28 04:37:29;;;;;;;125.33;44.97;;;3.80;99.90;;;;;;5052968;28;20179;-71
2024/02/28 04:39:54;;;;;;;137.80;46.07;;;3.80;99.90;;;;;;5069916;28;20691;-71
2024/02/28 04:42:20;;;;;;;143.67;45.43;;;3.90;99.90;;;;;;5071985;28;20213;-71
2024/02/28 04:44:45;;;;;;;135.57;45.40;;;3.90;99.90;;;;;;5072483;28;20171;-71
2024/02/28 04:47:11;;;;;;;137.80;46.37;;;3.80;99.90;;;;;;5072395;28;20647;-71
2024/02/28 04:49:40;;;;;;;151.90;46.60;;;3.90;99.90;;;;;;5072446;28;20190;-71
2024/02/28 04:52:06;;;;;;;128.57;43.70;;;3.90;99.90;;;;;;5063471;28;20183;-71
2024/02/28 04:54:32;;;;;;;139.30;44.80;;;3.90;99.90;;;;;;5051893;28;20834;-71
2024/02/28 04:56:58;;;;;;;133.57;43.90;;;3.80;99.90;;;;;;5052142;28;20178;-71
2024/02/28 04:59:23;;;;;;;123.57;42.17;;;3.80;99.90;;;;;;5058928;28;20206;-71
2024/02/28 05:01:49;;;;;;;116.77;37.63;;;3.70;99.90;;;;;;5072221;28;20574;-71
2024/02/28 05:04:14;;;;;;;121.03;40.40;;;3.60;99.90;;;;;;5071965;28;20170;-71
2024/02/28 05:06:40;;;;;;;125.50;37.53;;;3.50;99.90;;;;;;5072334;28;20637;-71
2024/02/28 05:09:06;;;;;;;115.20;37.67;;;3.40;99.90;;;;;;5071857;28;20251;-71
2024/02/28 05:11:32;;;;;;;101.43;34.90;;;3.30;99.90;;;;;;5072116;28;20210;-71
2024/02/28 05:13:57;;;;;;;124.90;37.87;;;3.10;99.90;;;;;;5066558;28;20546;-71
2024/02/28 05:16:23;;;;;;;120.87;36.57;;;3.00;99.90;;;;;;5052511;28;20179;-71
2024/02/28 05:18:48;;;;;;;133.40;39.10;;;3.00;99.90;;;;;;5052023;28;20179;-71
2024/02/28 05:21:14;;;;;;;122.43;37.80;;;2.90;99.90;;;;;;5069311;28;20241;-71
2024/02/28 05:23:40;;;;;;;153.03;41.33;;;2.90;99.90;;;;;;5071715;28;20224;-71
2024/02/28 05:26:06;;;;;;;135.63;37.67;;;2.90;99.90;;;;;;5071816;28;20166;-71
2024/02/28 05:28:35;;;;;;;132.10;39.07;;;2.90;99.90;;;;;;5056174;28;20206;-71
2024/02/28 05:31:20;;;;;;;163.27;41.33;;;2.90;99.90;;;;;;5051456;28;20187;-71
2024/02/28 05:33:46;;;;;;;147.07;41.93;;;3.00;99.90;;;;;;5051537;28;20174;-71
2024/02/28 05:36:12;;;;;;;153.67;42.20;;;2.90;99.90;;;;;;5051620;28;20539;-71
2024/02/28 05:38:37;;;;;;;168.60;46.50;;;2.90;99.90;;;;;;5051669;28;20171;-71
2024/02/28 05:41:03;;;;;;;154.43;42.13;;;3.00;99.90;;;;;;5051032;28;20660;-71
2024/02/28 05:43:29;;;;;;;133.83;40.73;;;3.00;99.90;;;;;;5068059;28;20182;-71
2024/02/28 05:45:54;;;;;;;150.20;40.73;;;3.00;99.90;;;;;;5071685;28;20171;-71
2024/02/28 05:48:20;;;;;;;140.70;40.77;;;3.10;99.90;;;;;;5070893;28;20323;-72
2024/02/28 05:50:46;;;;;;;159.13;40.10;;;3.10;99.90;;;;;;5071529;28;20660;-72
2024/02/28 05:53:11;;;;;;;149.60;40.73;;;3.10;99.90;;;;;;5071669;28;20174;-72
2024/02/28 05:55:37;;;;;;;157.60;40.17;;;3.20;99.90;;;;;;5071576;28;20307;-72
2024/02/28 05:58:03;;;;;;;144.23;40.37;;;3.20;99.90;;;;;;5071302;28;20174;-72
2024/02/28 06:00:29;;;;;;;132.57;38.43;;;3.20;99.90;;;;;;5055655;28;20202;-72
2024/02/28 06:02:54;;;;;;;150.73;39.93;;;3.20;99.90;;;;;;5051435;28;20209;-72
2024/02/28 06:05:20;;;;;;;156.40;39.13;;;3.10;99.90;;;;;;5051333;28;20258;-71
2024/02/28 06:07:45;;;;;;;137.63;37.40;;;3.10;99.90;;;;;;5051477;28;20241;-72
2024/02/28 06:10:11;;;;;;;164.70;41.97;;;3.10;99.90;;;;;;5051163;28;20195;-72
2024/02/28 06:12:37;;;;;;;164.83;40.63;;;3.10;99.90;;;;;;5051587;28;20522;-72
2024/02/28 06:15:04;;;;;;;173.40;40.10;;;3.10;99.90;;;;;;5066651;28;20182;-72
2024/02/28 06:17:29;;;;;;;170.57;42.50;;;3.10;99.90;;;;;;5071575;28;20177;-71
2024/02/28 06:19:55;;;;;;;165.77;41.63;;;3.10;99.90;;;;;;5071256;28;20200;-72
2024/02/28 06:22:21;;;;;;;157.03;42.23;;;3.10;99.90;;;;;;5070698;28;20236;-72
2024/02/28 06:24:46;;;;;;;179.87;42.77;;;3.00;99.90;;;;;;5070979;28;20683;-71
2024/02/28 06:27:13;;;;;;;170.80;40.80;;;3.10;99.90;;;;;;5070736;28;20173;-71
2024/02/28 06:29:42;;;;;;;182.47;41.40;;;3.10;99.90;;;;;;5055827;28;20409;-72
2024/02/28 06:32:08;;;;;;;165.67;43.57;;;3.10;99.90;;;;;;5050729;28;20174;-72
2024/02/28 06:34:33;;;;;;;174.67;43.60;;;3.10;99.90;;;;;;5050713;28;20596;-72
2024/02/28 06:36:59;;;;;;;174.67;44.90;;;3.10;99.90;;;;;;5051083;28;20179;-72
2024/02/28 06:39:25;;;;;;;179.57;44.23;;;3.10;99.90;;;;;;5050466;28;20252;-72
2024/02/28 06:41:51;;;;;;;164.43;43.57;;;3.10;99.90;;;;;;5052145;28;20202;-71
2024/02/28 06:44:18;;;;;;;179.70;44.77;;;3.10;99.90;;;;;;5052977;28;20181;-71
2024/02/28 06:46:44;;;;;;;162.43;41.73;;;3.10;99.90;;;;;;5050826;28;20186;-71
2024/02/28 06:49:10;;;;;;;177.57;42.77;;;3.20;99.90;;;;;;5050341;28;20179;-71
2024/02/28 06:51:35;;;;;;;175.37;43.90;;;3.20;99.90;;;;;;5051041;28;20175;-71
2024/02/28 06:54:01;;;;;;;177.03;42.33;;;3.20;99.90;;;;;;5050381;28;20256;-71
2024/02/28 06:56:26;;;;;;;156.93;42.90;;;3.20;99.90;;;;;;5050708;28;20252;-71
2024/02/28 06:58:52;;;;;;;203.03;44.50;;;3.20;99.90;;;;;;5050643;28;20175;-71
2024/02/28 07:01:18;;;;;;;165.70;44.60;;;3.30;99.90;;;;;;5050459;28;20206;-71
2024/02/28 07:03:44;;;;;;;172.20;43.93;;;3.20;99.90;;;;;;5053139;28;20206;-72
2024/02/28 07:06:09;;;;;;;156.97;40.80;;;3.20;99.90;;;;;;5052695;28;20194;-72
2024/02/28 07:08:35;;;;;;;174.57;42.73;;;3.30;99.90;;;;;;5051065;28;20258;-72
2024/02/28 07:11:01;;;;;;;183.63;43.10;;;3.30;99.90;;;;;;5051369;28;20610;-72
2024/02/28 07:13:27;;;;;;;177.70;43.07;;;3.40;99.90;;;;;;5049932;28;20202;-70
2024/02/28 07:15:54;;;;;;;184.97;44.10;;;3.40;99.90;;;;;;5050389;28;20170;-71
2024/02/28 07:18:20;;;;;;;184.43;44.67;;;3.50;99.90;;;;;;5066776;28;20186;-72
2024/02/28 07:20:46;;;;;;;157.53;41.03;;;3.60;99.90;;;;;;5073919;28;20251;-71
2024/02/28 07:23:12;;;;;;;155.57;39.77;;;3.70;99.90;;;;;;5073494;28;20205;-71
2024/02/28 07:25:37;;;;;;;157.40;41.73;;;3.80;99.90;;;;;;5073606;28;20174;-72
2024/02/28 07:28:04;;;;;;;155.67;41.63;;;3.80;99.90;;;;;;5054574;28;20183;-71
2024/02/28 07:30:30;;;;;;;141.20;40.17;;;3.80;99.90;;;;;;5053877;28;20195;-72
2024/02/28 07:32:56;;;;;;;165.10;42.90;;;3.90;99.90;;;;;;5053748;28;20205;-71
2024/02/28 07:35:23;;;;;;;152.90;40.63;;;3.90;99.90;;;;;;5053361;28;20179;-71
2024/02/28 07:37:49;;;;;;;169.33;42.20;;;3.90;99.90;;;;;;5057901;28;20552;-71
2024/02/28 07:40:15;;;;;;;162.67;43.43;;;4.00;99.90;;;;;;5073149;28;20221;-71
2024/02/28 07:42:40;;;;;;;149.80;41.17;;;4.10;99.90;;;;;;5073581;28;20280;-71
2024/02/28 07:45:08;;;;;;;158.80;44.23;;;4.20;99.90;;;;;;5075617;28;20531;-71
2024/02/28 07:47:34;;;;;;;139.70;39.43;;;4.30;99.90;;;;;;5075849;28;20437;-72
2024/02/28 07:49:59;;;;;;;156.80;41.00;;;4.40;99.90;;;;;;5073982;28;20201;-72
2024/02/28 07:52:25;;;;;;;149.20;41.30;;;4.30;99.90;;;;;;5070217;28;20500;-71
2024/02/28 07:54:51;;;;;;;136.47;39.87;;;4.30;99.90;;;;;;5035424;28;20179;-72
2024/02/28 07:57:17;;;;;;;140.87;41.17;;;4.40;99.90;;;;;;5053191;28;20644;-72
2024/02/28 07:59:42;;;;;;;133.23;40.07;;;4.40;99.90;;;;;;5035635;28;20203;-72
2024/02/28 08:02:09;;;;;;;129.57;39.60;;;4.50;99.90;;;;;;5052926;28;20704;-72
2024/02/28 08:04:35;;;;;;;117.50;38.93;;;4.50;99.90;;;;;;5072899;28;20193;-70
2024/02/28 08:07:01;;;;;;;147.53;41.47;;;4.50;99.90;;;;;;5058930;28;20221;-71
2024/02/28 08:09:27;;;;;;;133.20;40.30;;;4.60;99.90;;;;;;5035630;28;20202;-71
2024/02/28 08:11:52;;;;;;;137.53;41.13;;;4.80;99.90;;;;;;5053082;28;20258;-70
2024/02/28 08:14:18;;;;;;;130.23;40.67;;;4.90;99.90;;;;;;5052701;28;20525;-70
2024/02/28 08:16:43;;;;;;;137.03;41.43;;;5.10;99.90;;;;;;5053043;28;20177;-70
2024/02/28 08:19:09;;;;;;;145.17;42.97;;;5.30;99.90;;;;;;5052563;28;20658;-70
2024/02/28 08:21:35;;;;;;;132.57;44.97;;;5.40;99.90;;;;;;5064926;28;20209;-70
2024/02/28 08:24:04;;;;;;;134.97;42.00;;;5.60;99.90;;;;;;5072526;28;20639;-71
2024/02/28 08:26:30;;;;;;;138.87;41.90;;;5.80;99.90;;;;;;5073029;28;20193;-71
2024/02/28 08:28:55;;;;;;;121.13;43.53;;;5.80;99.90;;;;;;5072624;28;20185;-70
2024/02/28 08:31:21;;;;;;;133.73;45.07;;;5.60;99.90;;;;;;5071787;28;20178;-70
2024/02/28 08:33:47;;;;;;;119.33;40.03;;;5.50;99.90;;;;;;5068816;28;20663;-71
2024/02/28 08:36:12;;;;;;;136.27;44.43;;;5.50;99.90;;;;;;5052543;28;20185;-70
2024/02/28 08:38:38;;;;;;;138.63;44.50;;;5.50;99.90;;;;;;5052475;28;20917;-70
2024/02/28 08:41:05;;;;;;;144.80;45.23;;;5.30;99.90;;;;;;5052715;28;20221;-71
2024/02/28 08:43:30;;;;;;;142.53;45.77;;;5.30;99.90;;;;;;5051966;28;20270;-71
2024/02/28 08:45:56;;;;;;;155.30;46.70;;;5.40;99.90;;;;;;5064498;28;20260;-70
2024/02/28 08:48:22;;;;;;;137.67;45.67;;;5.40;99.90;;;;;;5054377;28;20247;-71
2024/02/28 08:50:48;;;;;;;160.20;48.63;;;5.60;99.90;;;;;;5072440;28;20196;-71
2024/02/28 08:53:14;;;;;;;146.70;46.83;;;5.80;99.90;;;;;;5072127;28;20655;-70
2024/02/28 08:55:39;;;;;;;141.67;47.43;;;6.00;99.90;;;;;;5072001;28;20643;-71
2024/02/28 08:58:05;;;;;;;152.83;46.77;;;6.20;99.90;;;;;;5072069;28;20593;-70
2024/02/28 09:00:31;;;;;;;137.27;47.30;;;6.60;99.90;;;;;;5069817;28;20204;-70
2024/02/28 09:02:57;;;;;;;122.73;45.93;;;6.80;99.90;;;;;;5053976;28;20213;-70
2024/02/28 09:05:23;;;;;;;112.07;44.17;;;7.10;99.90;;;;;;5071690;28;20175;-70
2024/02/28 09:07:51;;;;;;;133.23;47.60;;;7.40;99.90;;;;;;5058385;28;20189;-70
2024/02/28 09:10:21;;;;;;;120.67;47.53;;;7.80;99.90;;;;;;5051748;28;20217;-70
2024/02/28 09:12:47;;;;;;;100.47;44.63;;;8.20;99.90;;;;;;5052249;28;20206;-70
2024/02/28 09:15:13;;;;;;;95.40;43.60;;;8.60;99.90;;;;;;5053996;28;20205;-71
2024/02/28 09:17:38;;;;;;;90.50;42.57;;;8.60;99.90;;;;;;5053129;28;20206;-71
2024/02/28 09:20:06;;;;;;;84.63;41.80;;;8.60;99.90;;;;;;5054848;28;20278;-71
2024/02/28 09:22:32;;;;;;;83.27;40.27;;;8.50;99.90;;;;;;5069165;28;20202;-71
2024/02/28 09:24:57;;;;;;;76.30;39.60;;;8.40;99.90;;;;;;5075105;28;20235;-71
2024/02/28 09:27:24;;;;;;;72.17;38.13;;;8.40;99.90;;;;;;5074393;28;20178;-70
2024/02/28 09:29:50;;;;;;;73.00;36.77;;;8.30;99.90;;;;;;5052956;28;20179;-70
2024/02/28 09:32:15;;;;;;;62.83;33.00;;;8.30;99.90;;;;;;5052618;28;20553;-71
2024/02/28 09:34:41;;;;;;;61.40;34.60;;;8.20;99.90;;;;;;5052970;28;20179;-70
2024/02/28 09:37:07;;;;;;;68.03;33.83;;;8.10;99.90;;;;;;5053611;28;20601;-70
2024/02/28 09:39:32;;;;;;;57.73;32.10;;;8.20;99.90;;;;;;5052282;28;20222;-70
2024/02/28 09:41:58;;;;;;;59.13;31.90;;;8.20;99.90;;;;;;5051771;28;20246;-71
2024/02/28 09:44:24;;;;;;;49.17;29.70;;;8.30;99.90;;;;;;5051562;28;20678;-70
2024/02/28 09:46:51;;;;;;;50.87;29.30;;;8.10;99.90;;;;;;5052380;28;20167;-71
2024/02/28 09:49:18;;;;;;;52.07;30.47;;;8.10;99.90;;;;;;5051974;28;20221;-69
2024/02/28 09:51:49;;;;;;;47.27;29.20;;;8.30;99.90;;;;;;5051610;28;20240;-71
2024/02/28 09:54:15;;;;;;;56.80;30.00;;;8.50;99.90;;;;;;5070111;28;20185;-70
2024/02/28 09:56:40;;;;;;;50.37;28.20;;;8.80;99.90;;;;;;5071354;28;20265;-72
2024/02/28 09:59:06;;;;;;;44.87;26.60;;;9.10;99.90;;;;;;5075418;28;20216;-71
2024/02/28 10:01:41;;;;;;;41.97;25.43;;;9.30;99.90;;;;;;5075994;28;20212;-71
2024/02/28 10:04:07;;;;;;;43.53;25.70;;;9.40;99.90;;;;;;5075653;28;20165;-71
2024/02/28 10:06:33;;;;;;;40.43;24.67;;;9.50;99.90;;;;;;5074177;28;20547;-70
2024/02/28 10:08:58;;;;;;;45.57;25.23;;;9.60;99.90;;;;;;5072078;28;20174;-71
2024/02/28 10:11:25;;;;;;;40.00;25.07;;;9.80;99.90;;;;;;5060775;28;20607;-71
2024/02/28 10:13:54;;;;;;;40.27;24.57;;;10.20;99.90;;;;;;5052650;28;20177;-71
2024/02/28 10:16:20;;;;;;;44.20;26.13;;;10.60;99.90;;;;;;5052699;28;20617;-71
2024/02/28 10:18:46;;;;;;;38.53;24.87;;;11.10;99.90;;;;;;5052450;28;20213;-71
2024/02/28 10:21:14;;;;;;;39.37;25.07;;;11.50;99.90;;;;;;5052183;28;20229;-70
2024/02/28 10:23:41;;;;;;;42.30;25.33;;;11.80;99.90;;;;;;5053119;28;20554;-71
2024/02/28 10:26:11;;;;;;;45.73;27.13;;;12.30;99.90;;;;;;5070949;28;20185;-71
2024/02/28 10:28:38;;;;;;;44.37;25.43;;;12.50;99.90;;;;;;5071344;28;20200;-71
2024/02/28 10:31:05;;;;;;;37.07;24.87;;;12.50;99.90;;;;;;5070833;28;20218;-71
2024/02/28 10:33:33;;;;;;;39.30;25.10;;;12.60;99.90;;;;;;5070919;28;20170;-70
2024/02/28 10:35:59;;;;;;;39.37;24.73;;;12.50;99.90;;;;;;5071161;28;20262;-70
2024/02/28 10:38:27;;;;;;;39.80;25.47;;;12.30;99.90;;;;;;5062415;28;20213;-70
2024/02/28 10:40:53;;;;;;;40.93;27.17;;;12.20;99.90;;;;;;5051012;28;20597;-70
2024/02/28 10:43:20;;;;;;;42.70;26.40;;;12.30;99.90;;;;;;5050460;28;20210;-70
2024/02/28 10:45:46;;;;;;;44.10;27.40;;;12.40;99.90;;;;;;5051524;28;20200;-71
2024/02/28 10:48:15;;;;;;;43.90;28.60;;;12.70;99.90;;;;;;5044807;28;20182;-71
2024/02/28 10:50:41;;;;;;;46.87;29.00;;;13.00;99.90;;;;;;5071298;28;20263;-71
2024/02/28 10:53:17;;;;;;;36.30;24.67;;;13.30;99.90;;;;;;5057745;28;20178;-71
2024/02/28 10:55:46;;;;;;;38.70;24.43;;;13.40;99.90;;;;;;5055433;28;20190;-71
2024/02/28 10:58:14;;;;;;;39.47;26.00;;;13.40;99.90;;;;;;5038788;28;20171;-71
2024/02/28 11:00:44;;;;;;;39.07;24.27;;;13.10;99.90;;;;;;5058048;28;20210;-71
2024/02/28 11:03:11;;;;;;;43.37;25.77;;;12.90;99.90;;;;;;5058738;28;20277;-71
2024/02/28 11:05:41;;;;;;;41.33;25.97;;;12.50;99.90;;;;;;5058166;28;20171;-71
2024/02/28 11:08:11;;;;;;;43.83;27.20;;;12.50;99.90;;;;;;5073323;28;20541;-71
2024/02/28 11:10:46;;;;;;;43.50;26.47;;;12.60;99.90;;;;;;5077244;28;20659;-71
2024/02/28 11:13:24;;;;;;;40.57;26.50;;;12.90;99.90;;;;;;5077165;28;20200;-71
2024/02/28 11:15:51;;;;;;;45.00;27.93;;;12.90;99.90;;;;;;5075538;28;20265;-71
2024/02/28 11:18:17;;;;;;;43.77;27.90;;;13.00;99.90;;;;;;5074440;28;20170;-71
2024/02/28 11:20:46;;;;;;;44.20;27.53;;;13.20;99.90;;;;;;5073139;28;20687;-71
2024/02/28 11:23:12;;;;;;;45.17;28.37;;;13.40;99.90;;;;;;5075937;28;20293;-71
2024/02/28 11:25:38;;;;;;;49.40;28.93;;;13.50;99.90;;;;;;5077532;28;20197;-70
2024/02/28 11:28:05;;;;;;;47.60;29.53;;;13.60;99.90;;;;;;5074345;28;20573;-70
2024/02/28 11:30:31;;;;;;;52.07;29.77;;;13.80;99.90;;;;;;5074252;28;20190;-70
2024/02/28 11:32:58;;;;;;;44.03;27.97;;;13.80;99.90;;;;;;5074277;28;20224;-70
2024/02/28 11:35:25;;;;;;;44.03;27.83;;;13.80;99.90;;;;;;5063915;28;20181;-70
2024/02/28 11:37:53;;;;;;;42.70;27.27;;;13.80;99.90;;;;;;5055050;28;20234;-72
2024/02/28 11:40:19;;;;;;;41.60;25.97;;;14.00;99.90;;;;;;5054171;28;20214;-70
2024/02/28 11:42:45;;;;;;;39.47;25.43;;;14.20;99.90;;;;;;5053502;28;20221;-70
2024/02/28 11:45:11;;;;;;;36.17;23.33;;;14.30;99.90;;;;;;5053804;28;20175;-70
2024/02/28 11:47:36;;;;;;;42.27;25.83;;;14.50;99.90;;;;;;5053913;28;20182;-70
2024/02/28 11:50:03;;;;;;;40.53;25.60;;;14.80;99.90;;;;;;5073660;28;20194;-70
2024/02/28 11:52:32;;;;;;;39.23;25.60;;;15.00;99.90;;;;;;5074086;28;20666;-71
2024/02/28 11:54:57;;;;;;;42.27;26.00;;;15.20;99.90;;;;;;5073684;28;20261;-70
2024/02/28 11:57:23;;;;;;;34.47;23.60;;;15.40;99.90;;;;;;5073717;28;20250;-70
2024/02/28 11:59:49;;;;;;;38.87;23.93;;;15.40;99.90;;;;;;5073948;28;20255;-70
2024/02/28 12:02:15;;;;;;;41.53;25.40;;;15.40;99.90;;;;;;5073684;28;20283;-70
2024/02/28 12:04:45;;;;;;;41.77;25.93;;;15.40;99.90;;;;;;5054311;28;20547;-69
2024/02/28 12:07:11;;;;;;;40.87;26.53;;;15.50;99.90;;;;;;5053730;28;20167;-70
2024/02/28 12:09:38;;;;;;;40.60;25.73;;;15.40;99.90;;;;;;5053590;28;20240;-70
2024/02/28 12:12:06;;;;;;;38.23;24.93;;;15.50;99.90;;;;;;5053538;28;20536;-70
2024/02/28 12:14:35;;;;;;;39.13;24.73;;;15.70;99.90;;;;;;5061371;28;20178;-70
2024/02/28 12:17:02;;;;;;;34.87;22.83;;;16.00;99.90;;;;;;5073395;28;20185;-70
2024/02/28 12:19:28;;;;;;;32.67;22.70;;;15.90;99.90;;;;;;5069206;28;20735;-71
2024/02/28 12:21:54;;;;;;;31.37;21.63;;;15.40;99.30;;;;;;5054878;28;20229;-70
2024/02/28 12:24:20;;;;;;;38.37;23.77;;;15.20;99.90;;;;;;5052861;28;20199;-71